sensor_id;sensor_type;location;lat;lon;timestamp;temperature;humidity
31687;DHT22;18285;51.330;4.946;2024-01-11T00:16:41;25.40;22.90
31687;DHT22;18285;51.330;4.946;2024-01-11T00:40:52;25.60;22.70
31687;DHT22;18285;51.330;4.946;2024-01-11T01:05:03;25.60;22.50
31687;DHT22;18285;51.330;4.946;2024-01-11T01:29:14;25.70;22.50
31687;DHT22;18285;51.330;4.946;2024-01-11T01:53:27;25.70;22.20
31687;DHT22;18285;51.330;4.946;2024-01-11T02:17:40;25.60;22.30
31687;DHT22;18285;51.330;4.946;2024-01-11T02:41:53;25.60;22.30
31687;DHT22;18285;51.330;4.946;2024-01-11T03:06:04;25.50;22.30
31687;DHT22;18285;51.330;4.946;2024-01-11T03:30:14;25.40;22.30
31687;DHT22;18285;51.330;4.946;2024-01-11T03:54:27;25.20;22.50
31687;DHT22;18285;51.330;4.946;2024-01-11T04:18:38;25.00;22.50
31687;DHT22;18285;51.330;4.946;2024-01-11T05:07:06;24.80;22.00
31687;DHT22;18285;51.330;4.946;2024-01-11T05:31:17;24.60;21.90
31687;DHT22;18285;51.330;4.946;2024-01-11T05:55:28;24.50;21.70
31687;DHT22;18285;51.330;4.946;2024-01-11T06:19:38;24.30;22.10
31687;DHT22;18285;51.330;4.946;2024-01-11T06:43:49;24.20;23.20
31687;DHT22;18285;51.330;4.946;2024-01-11T07:08:00;24.00;23.70
31687;DHT22;18285;51.330;4.946;2024-01-11T07:56:25;23.60;23.50
31687;DHT22;18285;51.330;4.946;2024-01-11T08:20:35;23.50;23.60
31687;DHT22;18285;51.330;4.946;2024-01-11T08:44:46;23.50;23.30
31687;DHT22;18285;51.330;4.946;2024-01-11T09:08:57;23.40;23.60
31687;DHT22;18285;51.330;4.946;2024-01-11T09:33:08;23.30;24.10
31687;DHT22;18285;51.330;4.946;2024-01-11T09:57:24;23.30;24.50
31687;DHT22;18285;51.330;4.946;2024-01-11T10:21:38;23.20;24.70
31687;DHT22;18285;51.330;4.946;2024-01-11T10:45:51;23.20;25.00
31687;DHT22;18285;51.330;4.946;2024-01-11T11:10:29;23.20;25.20
31687;DHT22;18285;51.330;4.946;2024-01-11T11:34:41;23.10;25.40
31687;DHT22;18285;51.330;4.946;2024-01-11T11:58:52;23.10;25.60
31687;DHT22;18285;51.330;4.946;2024-01-11T12:23:05;23.00;25.80
31687;DHT22;18285;51.330;4.946;2024-01-11T12:47:17;23.00;26.00
31687;DHT22;18285;51.330;4.946;2024-01-11T13:11:28;23.00;26.10
31687;DHT22;18285;51.330;4.946;2024-01-11T13:35:40;23.00;26.20
31687;DHT22;18285;51.330;4.946;2024-01-11T13:59:51;23.10;25.80
31687;DHT22;18285;51.330;4.946;2024-01-11T14:24:04;23.10;25.80
31687;DHT22;18285;51.330;4.946;2024-01-11T14:48:15;23.10;25.90
31687;DHT22;18285;51.330;4.946;2024-01-11T15:12:25;23.10;25.50
31687;DHT22;18285;51.330;4.946;2024-01-11T15:36:36;23.10;26.20
31687;DHT22;18285;51.330;4.946;2024-01-11T16:01:15;23.00;26.10
31687;DHT22;18285;51.330;4.946;2024-01-11T16:25:26;23.10;26.00
31687;DHT22;18285;51.330;4.946;2024-01-11T16:49:37;23.00;26.60
31687;DHT22;18285;51.330;4.946;2024-01-11T17:13:51;23.00;27.80
31687;DHT22;18285;51.330;4.946;2024-01-11T17:55:35;22.60;24.20
31687;DHT22;18285;51.330;4.946;2024-01-11T18:19:46;22.40;27.60
31687;DHT22;18285;51.330;4.946;2024-01-11T18:43:57;22.50;27.60
31687;DHT22;18285;51.330;4.946;2024-01-11T19:08:08;22.70;28.30
31687;DHT22;18285;51.330;4.946;2024-01-11T19:32:18;22.60;27.90
31687;DHT22;18285;51.330;4.946;2024-01-11T19:56:29;22.50;28.10
31687;DHT22;18285;51.330;4.946;2024-01-11T20:20:42;22.60;28.80
31687;DHT22;18285;51.330;4.946;2024-01-11T20:44:54;22.70;29.40
31687;DHT22;18285;51.330;4.946;2024-01-11T21:09:05;22.80;29.90
31687;DHT22;18285;51.330;4.946;2024-01-11T21:33:16;23.20;31.10
31687;DHT22;18285;51.330;4.946;2024-01-11T21:57:27;23.60;31.60
31687;DHT22;18285;51.330;4.946;2024-01-11T22:21:38;23.50;30.50
31687;DHT22;18285;51.330;4.946;2024-01-11T22:45:52;24.10;30.00
31687;DHT22;18285;51.330;4.946;2024-01-11T23:10:03;24.70;29.70
31687;DHT22;18285;51.330;4.946;2024-01-11T23:34:14;25.30;28.90
31687;DHT22;18285;51.330;4.946;2024-01-11T23:58:25;25.50;28.20
